createdAt,value
2022-12-24T00:00:55.287Z,10.90
2022-12-24T00:05:57.095Z,10.80
2022-12-24T00:10:59.322Z,10.70
2022-12-24T00:16:01.169Z,10.60
2022-12-24T00:21:03.993Z,10.50
2022-12-24T00:26:05.768Z,10.50
2022-12-24T00:31:15.989Z,10.40
2022-12-24T00:36:19.278Z,10.20
2022-12-24T00:41:29.075Z,10.30
2022-12-24T00:46:32.658Z,10.20
2022-12-24T00:51:35.947Z,10.10
2022-12-24T00:56:37.753Z,10.20
2022-12-24T01:01:39.541Z,10.20
2022-12-24T01:06:41.339Z,10.20
2022-12-24T01:11:43.124Z,10.20
2022-12-24T01:16:44.850Z,10.10
2022-12-24T01:21:46.600Z,10.10
2022-12-24T01:26:48.316Z,10.10
2022-12-24T01:31:50.118Z,10.20
2022-12-24T01:36:51.842Z,10.20
2022-12-24T01:42:12.238Z,10.30
2022-12-24T01:47:27.900Z,10.40
2022-12-24T01:52:35.804Z,10.40
2022-12-24T01:57:42.885Z,10.50
2022-12-24T02:02:49.258Z,10.60
2022-12-24T02:07:52.051Z,10.60
2022-12-24T02:12:54.280Z,10.50
2022-12-24T02:18:07.955Z,10.50
2022-12-24T02:23:24.801Z,10.50
2022-12-24T02:28:50.296Z,10.40
2022-12-24T02:34:03.624Z,10.40
2022-12-24T02:39:10.722Z,10.40
2022-12-24T02:44:12.648Z,10.30
2022-12-24T02:49:14.623Z,10.30
2022-12-24T02:54:16.747Z,10.20
2022-12-24T02:59:42.971Z,10.20
2022-12-24T03:05:18.832Z,10.20
2022-12-24T03:11:02.469Z,10.20
2022-12-24T03:16:08.972Z,10.20
2022-12-24T03:21:27.843Z,10.30
2022-12-24T03:26:32.734Z,10.30
2022-12-24T03:31:45.754Z,10.30
2022-12-24T03:36:48.268Z,10.20
2022-12-24T03:41:49.938Z,10.20
2022-12-24T03:46:51.645Z,10.20
2022-12-24T03:51:53.434Z,10.20
2022-12-24T03:56:55.125Z,10.10
2022-12-24T04:01:57.025Z,10.10
2022-12-24T04:06:59.453Z,10.10
2022-12-24T04:12:01.269Z,10.00
2022-12-24T04:17:02.947Z,10.00
2022-12-24T04:22:04.869Z,9.90
2022-12-24T04:27:06.549Z,9.80
2022-12-24T04:32:10.283Z,9.80
2022-12-24T04:37:12.943Z,9.70
2022-12-24T04:42:14.618Z,9.60
2022-12-24T04:47:16.357Z,9.70
2022-12-24T04:52:18.094Z,9.80
2022-12-24T04:57:19.766Z,9.70
2022-12-24T05:02:21.569Z,9.70
2022-12-24T05:07:23.401Z,9.60
2022-12-24T05:12:25.081Z,9.60
2022-12-24T05:17:26.720Z,9.50
2022-12-24T05:22:48.778Z,9.40
2022-12-24T05:27:51.483Z,9.40
2022-12-24T05:32:53.359Z,9.30
2022-12-24T05:37:58.625Z,9.30
2022-12-24T05:43:00.311Z,9.40
2022-12-24T05:48:01.923Z,9.40
2022-12-24T05:53:03.669Z,9.50
2022-12-24T05:58:05.323Z,9.50
2022-12-24T06:03:07.065Z,9.50
2022-12-24T06:08:08.928Z,9.50
2022-12-24T06:13:10.559Z,9.50
2022-12-24T06:18:12.207Z,9.50
2022-12-24T06:23:13.854Z,9.50
2022-12-24T06:28:15.988Z,9.50
2022-12-24T06:33:19.289Z,9.50
2022-12-24T06:38:21.030Z,9.50
2022-12-24T06:43:22.803Z,9.40
2022-12-24T06:48:24.458Z,9.40
2022-12-24T06:53:26.155Z,9.40
2022-12-24T06:58:27.834Z,9.40
2022-12-24T07:03:30.767Z,9.40
2022-12-24T07:08:36.428Z,9.40
2022-12-24T07:13:38.412Z,9.40
2022-12-24T07:18:40.076Z,9.40
2022-12-24T07:23:41.887Z,9.40
2022-12-24T07:28:43.524Z,9.40
2022-12-24T07:33:45.222Z,9.30
2022-12-24T07:38:47.311Z,9.30
2022-12-24T07:43:48.938Z,9.20
2022-12-24T07:48:50.581Z,9.20
2022-12-24T07:53:52.227Z,9.20
2022-12-24T07:58:53.968Z,9.10
2022-12-24T08:03:55.795Z,9.20
2022-12-24T08:08:57.629Z,9.10
2022-12-24T08:13:59.455Z,9.10
2022-12-24T08:19:01.391Z,9.20
2022-12-24T08:24:03.320Z,9.20
2022-12-24T08:29:05.698Z,9.20
2022-12-24T08:34:08.084Z,9.20
2022-12-24T08:39:10.489Z,9.20
2022-12-24T08:44:12.204Z,9.30
2022-12-24T08:49:13.947Z,9.30
2022-12-24T08:54:15.841Z,9.40
2022-12-24T08:59:17.689Z,9.50
2022-12-24T09:04:20.250Z,9.60
2022-12-24T09:09:22.026Z,9.70
2022-12-24T09:14:23.768Z,9.90
2022-12-24T09:19:27.976Z,10.10
2022-12-24T09:24:29.697Z,10.20
2022-12-24T09:29:31.842Z,10.40
2022-12-24T09:34:33.517Z,10.60
2022-12-24T09:39:35.275Z,10.80
2022-12-24T09:44:49.017Z,10.90
2022-12-24T09:49:54.608Z,10.90
2022-12-24T09:55:07.064Z,11.10
2022-12-24T10:00:24.399Z,11.30
2022-12-24T10:05:42.857Z,11.40
2022-12-24T10:10:55.294Z,11.40
2022-12-24T10:16:16.172Z,11.50
2022-12-24T10:21:23.673Z,11.50
2022-12-24T10:26:43.139Z,11.50
2022-12-24T10:32:21.705Z,11.50
2022-12-24T10:37:29.436Z,11.40
2022-12-24T10:42:50.359Z,11.40
2022-12-24T10:47:57.237Z,11.40
2022-12-24T10:53:14.558Z,11.40
2022-12-24T10:58:19.578Z,11.40
2022-12-24T11:03:24.881Z,11.40
2022-12-24T11:08:26.559Z,11.50
2022-12-24T11:13:37.499Z,11.50
2022-12-24T11:18:51.094Z,11.50
2022-12-24T11:24:07.547Z,11.50
2022-12-24T11:29:16.727Z,11.50
2022-12-24T11:34:22.456Z,11.60
2022-12-24T11:39:25.916Z,11.60
2022-12-24T11:44:28.465Z,11.60
2022-12-24T11:49:33.122Z,11.60
2022-12-24T11:54:51.706Z,11.60
2022-12-24T11:59:53.423Z,11.60
2022-12-24T12:05:13.465Z,11.60
2022-12-24T12:10:20.701Z,11.60
2022-12-24T12:15:32.955Z,11.70
2022-12-24T12:20:42.654Z,11.60
2022-12-24T12:25:52.168Z,11.70
2022-12-24T12:31:15.755Z,11.80
2022-12-24T12:36:23.437Z,11.80
2022-12-24T12:41:51.455Z,11.80
2022-12-24T12:47:13.712Z,11.80
2022-12-24T12:52:23.760Z,11.70
2022-12-24T12:57:31.761Z,11.70
2022-12-24T13:03:02.273Z,11.60
2022-12-24T13:08:39.472Z,11.70
2022-12-24T13:13:43.923Z,11.70
2022-12-24T13:19:00.691Z,11.80
2022-12-24T13:24:19.479Z,11.80
2022-12-24T13:29:34.801Z,11.80
2022-12-24T13:34:38.078Z,11.70
2022-12-24T13:40:07.703Z,11.60
2022-12-24T13:45:38.980Z,11.60
2022-12-24T13:50:53.135Z,11.50
2022-12-24T13:55:56.994Z,11.60
2022-12-24T14:01:01.801Z,11.70
2022-12-24T14:06:10.485Z,11.80
2022-12-24T14:11:38.060Z,11.90
2022-12-24T14:16:47.721Z,11.90
2022-12-24T14:22:14.050Z,11.80
2022-12-24T14:27:24.335Z,11.80
2022-12-24T14:32:35.116Z,11.70
2022-12-24T14:37:37.265Z,11.70
2022-12-24T14:43:07.271Z,11.70
2022-12-24T14:48:34.434Z,11.60
2022-12-24T14:54:00.232Z,11.50
2022-12-24T14:59:15.518Z,11.40
2022-12-24T15:04:18.518Z,11.30
2022-12-24T15:09:30.600Z,11.20
2022-12-24T15:14:42.132Z,11.10
2022-12-24T15:19:47.481Z,10.90
2022-12-24T15:24:49.362Z,10.80
2022-12-24T15:29:59.381Z,10.70
2022-12-24T15:35:01.256Z,10.60
2022-12-24T15:40:19.533Z,10.50
2022-12-24T15:45:28.066Z,10.50
2022-12-24T15:50:33.820Z,10.40
2022-12-24T15:55:46.599Z,10.40
2022-12-24T16:01:10.320Z,10.30
2022-12-24T16:06:12.206Z,10.20
2022-12-24T16:11:19.026Z,10.10
2022-12-24T16:16:36.889Z,10.00
2022-12-24T16:21:40.842Z,9.90
2022-12-24T16:26:42.593Z,9.80
2022-12-24T16:31:55.820Z,9.70
2022-12-24T16:36:58.752Z,9.60
2022-12-24T16:42:22.377Z,9.50
2022-12-24T16:47:37.194Z,9.60
2022-12-24T16:52:44.477Z,9.50
2022-12-24T16:57:46.142Z,9.50
2022-12-24T17:02:50.881Z,9.40
2022-12-24T17:07:52.769Z,9.30
2022-12-24T17:12:54.812Z,9.10
2022-12-24T17:17:56.487Z,9.00
2022-12-24T17:22:58.836Z,8.90
2022-12-24T17:28:00.565Z,8.80
2022-12-24T17:33:02.228Z,8.70
2022-12-24T17:38:04.938Z,8.60
2022-12-24T17:43:06.668Z,8.50
2022-12-24T17:48:08.356Z,8.40
2022-12-24T17:53:10.435Z,8.40
2022-12-24T17:58:12.379Z,8.30
2022-12-24T18:03:14.592Z,8.20
2022-12-24T18:08:16.429Z,8.00
2022-12-24T18:13:19.608Z,8.00
2022-12-24T18:18:21.515Z,7.90
2022-12-24T18:23:23.197Z,7.90
2022-12-24T18:28:24.970Z,7.90
2022-12-24T18:33:26.863Z,7.90
2022-12-24T18:38:28.787Z,7.90
2022-12-24T18:43:30.444Z,7.90
2022-12-24T18:48:32.152Z,7.90
2022-12-24T18:53:34.366Z,7.90
2022-12-24T18:58:37.872Z,7.90
2022-12-24T19:03:39.735Z,7.90
2022-12-24T19:08:59.178Z,7.90
2022-12-24T19:14:03.630Z,8.00
2022-12-24T19:19:07.091Z,8.00
2022-12-24T19:24:10.677Z,7.90
2022-12-24T19:29:12.520Z,8.00
2022-12-24T19:34:14.554Z,8.00
2022-12-24T19:39:16.586Z,8.00
2022-12-24T19:44:18.293Z,8.00
2022-12-24T19:49:20.125Z,8.00
2022-12-24T19:54:21.862Z,8.00
2022-12-24T19:59:23.665Z,7.90
2022-12-24T20:04:25.428Z,7.90
2022-12-24T20:09:28.066Z,8.00
2022-12-24T20:14:29.788Z,8.00
2022-12-24T20:19:31.452Z,8.00
2022-12-24T20:24:33.292Z,8.00
2022-12-24T20:29:35.043Z,8.00
2022-12-24T20:34:36.886Z,7.90
2022-12-24T20:39:38.553Z,7.90
2022-12-24T20:44:40.461Z,7.90
2022-12-24T20:49:42.245Z,7.80
2022-12-24T20:54:44.125Z,7.80
2022-12-24T20:59:45.941Z,7.80
2022-12-24T21:04:47.629Z,7.90
2022-12-24T21:09:49.278Z,7.80
2022-12-24T21:14:50.996Z,7.90
2022-12-24T21:19:52.780Z,7.80
2022-12-24T21:24:54.511Z,7.80
2022-12-24T21:29:56.288Z,7.80
2022-12-24T21:34:57.963Z,7.80
2022-12-24T21:39:59.639Z,7.80
2022-12-24T21:45:02.165Z,7.80
2022-12-24T21:50:26.731Z,7.80
2022-12-24T21:55:31.708Z,7.80
2022-12-24T22:00:34.495Z,7.70
2022-12-24T22:05:36.271Z,7.80
2022-12-24T22:10:57.678Z,7.80
2022-12-24T22:15:59.591Z,7.80
2022-12-24T22:21:02.865Z,7.90
2022-12-24T22:26:17.254Z,8.00
2022-12-24T22:31:20.540Z,8.00
2022-12-24T22:36:22.650Z,8.00
2022-12-24T22:41:24.646Z,8.20
2022-12-24T22:46:26.866Z,8.30
2022-12-24T22:51:28.743Z,8.30
2022-12-24T22:56:35.553Z,8.30
2022-12-24T23:01:43.915Z,8.40
2022-12-24T23:06:45.697Z,8.40
2022-12-24T23:11:47.404Z,8.40
2022-12-24T23:16:49.264Z,8.50
2022-12-24T23:21:51.416Z,8.50
2022-12-24T23:26:53.167Z,8.50
2022-12-24T23:32:04.890Z,8.50
2022-12-24T23:37:06.744Z,8.50
2022-12-24T23:42:09.153Z,8.50
2022-12-24T23:47:10.794Z,8.50
2022-12-24T23:52:12.571Z,8.50
2022-12-24T23:57:14.409Z,8.50
